createdAt,value
2019-01-20T00:02:03.007Z,96095.22
2019-01-20T00:04:29.273Z,96098.59
2019-01-20T00:06:58.198Z,96096.13
2019-01-20T00:09:24.028Z,96118.52
2019-01-20T00:11:52.907Z,96096.13
2019-01-20T00:14:19.005Z,96110.95
2019-01-20T00:16:47.977Z,96096.66
2019-01-20T00:19:13.803Z,96094.11
2019-01-20T00:21:42.626Z,96094.66
2019-01-20T00:24:08.558Z,96112.02
2019-01-20T00:26:34.442Z,96095.98
2019-01-20T00:29:00.326Z,96098.59
2019-01-20T00:31:26.126Z,96096.39
2019-01-20T00:33:54.767Z,96093.05
2019-01-20T00:36:20.894Z,96118.03
2019-01-20T00:38:49.766Z,96097.27
2019-01-20T00:41:15.631Z,96089.17
2019-01-20T00:43:44.265Z,96087.77
2019-01-20T00:46:10.190Z,96102.89
2019-01-20T00:48:39.064Z,96082.84
2019-01-20T00:51:05.269Z,96098.14
2019-01-20T00:53:33.897Z,96077.55
2019-01-20T00:55:59.731Z,96095.81
2019-01-20T00:58:28.637Z,96075.55
2019-01-20T01:01:16.323Z,96077.23
2019-01-20T01:03:42.279Z,96080.19
2019-01-20T01:06:08.149Z,96079.30
2019-01-20T01:08:33.971Z,96092.78
2019-01-20T01:11:00.199Z,96086.38
2019-01-20T01:13:26.323Z,96092.27
2019-01-20T01:15:52.470Z,96085.11
2019-01-20T01:18:18.599Z,96087.20
2019-01-20T01:20:44.693Z,96093.27
2019-01-20T01:23:10.655Z,96092.84
2019-01-20T01:25:36.487Z,96091.67
2019-01-20T01:28:02.819Z,96096.85
2019-01-20T01:30:28.630Z,96097.28
2019-01-20T01:32:54.751Z,96090.47
2019-01-20T01:35:20.852Z,96097.66
2019-01-20T01:37:47.302Z,96092.20
2019-01-20T01:40:14.927Z,96095.23
2019-01-20T01:42:40.996Z,96103.80
2019-01-20T01:45:10.008Z,96101.81
2019-01-20T01:47:35.838Z,96100.56
2019-01-20T01:50:02.093Z,96099.75
2019-01-20T01:52:27.898Z,96104.88
2019-01-20T01:54:53.781Z,96101.94
2019-01-20T01:57:19.894Z,96095.14
2019-01-20T01:59:45.808Z,96096.80
2019-01-20T02:02:11.586Z,96090.36
2019-01-20T02:04:37.425Z,96090.30
2019-01-20T02:07:03.888Z,96088.11
2019-01-20T02:09:29.713Z,96086.82
2019-01-20T02:11:58.790Z,96089.38
2019-01-20T02:14:24.629Z,96105.91
2019-01-20T02:16:50.723Z,96088.56
2019-01-20T02:19:16.819Z,96086.84
2019-01-20T02:21:42.652Z,96083.48
2019-01-20T02:24:11.275Z,96082.69
2019-01-20T02:26:37.159Z,96078.02
2019-01-20T02:29:05.784Z,96083.09
2019-01-20T02:31:31.599Z,96100.32
2019-01-20T02:34:00.435Z,96084.98
2019-01-20T02:36:26.258Z,96076.16
2019-01-20T02:38:54.951Z,96080.89
2019-01-20T02:41:21.043Z,96098.25
2019-01-20T02:43:49.913Z,96076.63
2019-01-20T02:46:15.986Z,96078.28
2019-01-20T02:48:44.941Z,96079.03
2019-01-20T02:51:10.720Z,96091.70
2019-01-20T02:53:36.603Z,96081.11
2019-01-20T02:56:03.332Z,96080.69
2019-01-20T02:58:29.200Z,96079.82
2019-01-20T03:00:55.022Z,96079.84
2019-01-20T03:03:20.874Z,96084.39
2019-01-20T03:05:49.459Z,96081.96
2019-01-20T03:08:15.316Z,96081.23
2019-01-20T03:10:43.987Z,96081.70
2019-01-20T03:13:09.796Z,96098.02
2019-01-20T03:15:38.548Z,96073.81
2019-01-20T03:18:04.516Z,96091.93
2019-01-20T03:20:33.342Z,96071.15
2019-01-20T03:22:59.151Z,96099.83
2019-01-20T03:25:29.919Z,96071.47
2019-01-20T03:27:55.738Z,96082.84
2019-01-20T03:30:21.978Z,96068.14
2019-01-20T03:32:47.901Z,96066.78
2019-01-20T03:35:15.554Z,96066.78
2019-01-20T03:37:41.516Z,96065.52
2019-01-20T03:40:10.872Z,96066.78
2019-01-20T03:42:36.690Z,96064.73
2019-01-20T03:45:05.375Z,96072.33
2019-01-20T03:47:31.195Z,96067.73
2019-01-20T03:49:56.988Z,96065.67
2019-01-20T03:52:25.953Z,96072.41
2019-01-20T03:54:52.167Z,96082.91
2019-01-20T03:57:18.122Z,96067.45
2019-01-20T03:59:43.945Z,96066.51
2019-01-20T04:02:12.956Z,96057.83
2019-01-20T04:04:38.794Z,96059.11
2019-01-20T04:07:04.638Z,96060.76
2019-01-20T04:09:30.764Z,96056.43
2019-01-20T04:11:56.879Z,96063.56
2019-01-20T04:14:25.758Z,96059.63
2019-01-20T04:16:51.891Z,96076.04
2019-01-20T04:19:19.701Z,96067.09
2019-01-20T04:21:45.819Z,96062.05
2019-01-20T04:24:14.978Z,96057.88
2019-01-20T04:26:41.074Z,96079.15
2019-01-20T04:29:09.992Z,96058.73
2019-01-20T04:31:36.085Z,96062.94
2019-01-20T04:34:04.780Z,96057.69
2019-01-20T04:36:30.621Z,96078.91
2019-01-20T04:38:59.719Z,96060.96
2019-01-20T04:41:25.531Z,96082.09
2019-01-20T04:43:51.371Z,96058.42
2019-01-20T04:46:17.172Z,96061.77
2019-01-20T04:48:43.017Z,96060.00
2019-01-20T04:51:11.869Z,96064.28
2019-01-20T04:53:38.122Z,96080.32
2019-01-20T04:56:06.706Z,96063.01
2019-01-20T04:58:32.656Z,96068.34
2019-01-20T05:01:01.493Z,96061.04
2019-01-20T05:03:27.364Z,96057.05
2019-01-20T05:05:54.235Z,96064.64
2019-01-20T05:08:20.039Z,96082.34
2019-01-20T05:10:48.905Z,96059.96
2019-01-20T05:13:14.747Z,96061.16
2019-01-20T05:15:43.398Z,96056.94
2019-01-20T05:18:09.207Z,96061.06
2019-01-20T05:20:35.090Z,96065.25
2019-01-20T05:23:00.906Z,96061.44
2019-01-20T05:25:26.753Z,96059.41
2019-01-20T05:27:55.351Z,96058.14
2019-01-20T05:30:22.697Z,96058.89
2019-01-20T05:32:51.702Z,96058.83
2019-01-20T05:35:17.536Z,96064.68
2019-01-20T05:37:45.070Z,96059.59
2019-01-20T05:40:14.524Z,96053.31
2019-01-20T05:42:46.074Z,96055.88
2019-01-20T05:45:11.876Z,96056.34
2019-01-20T05:47:38.015Z,96059.67
2019-01-20T05:50:07.462Z,96055.02
2019-01-20T05:52:33.592Z,96054.47
2019-01-20T05:54:59.685Z,96048.33
2019-01-20T05:57:25.622Z,96057.70
2019-01-20T05:59:51.438Z,96060.59
2019-01-20T06:02:17.284Z,96065.28
2019-01-20T06:04:43.211Z,96064.39
2019-01-20T06:07:09.086Z,96064.38
2019-01-20T06:09:36.287Z,96068.20
2019-01-20T06:12:02.107Z,96086.47
2019-01-20T06:14:31.260Z,96061.38
2019-01-20T06:16:57.401Z,96083.06
2019-01-20T06:19:26.321Z,96062.30
2019-01-20T06:21:52.186Z,96094.09
2019-01-20T06:24:21.031Z,96070.82
2019-01-20T06:26:46.843Z,96072.41
2019-01-20T06:29:15.717Z,96068.09
2019-01-20T06:31:41.535Z,96091.79
2019-01-20T06:34:07.701Z,96080.38
2019-01-20T06:36:33.598Z,96076.55
2019-01-20T06:38:59.447Z,96080.44
2019-01-20T06:41:28.032Z,96074.85
2019-01-20T06:43:53.875Z,96094.48
2019-01-20T06:46:22.839Z,96074.59
2019-01-20T06:48:48.654Z,96086.84
2019-01-20T06:51:17.729Z,96075.55
2019-01-20T06:53:43.562Z,96108.55
2019-01-20T06:56:12.316Z,96088.59
2019-01-20T06:58:38.127Z,96106.91
2019-01-20T07:01:06.734Z,96089.84
2019-01-20T07:03:32.537Z,96107.64
2019-01-20T07:06:00.221Z,96100.89
2019-01-20T07:08:26.057Z,96100.13
2019-01-20T07:10:52.181Z,96104.91
2019-01-20T07:13:18.038Z,96104.22
2019-01-20T07:15:43.862Z,96102.52
2019-01-20T07:18:12.734Z,96106.95
2019-01-20T07:20:38.822Z,96110.53
2019-01-20T07:23:06.684Z,96114.27
2019-01-20T07:25:32.676Z,96124.33
2019-01-20T07:28:01.671Z,96125.42
2019-01-20T07:30:27.501Z,96133.11
2019-01-20T07:32:56.240Z,96137.77
2019-01-20T07:35:22.077Z,96144.41
2019-01-20T07:37:50.670Z,96128.72
2019-01-20T07:40:19.124Z,96139.61
2019-01-20T07:42:44.944Z,96139.05
2019-01-20T07:45:12.681Z,96069.02
2019-01-20T07:47:38.602Z,96148.12
2019-01-20T07:50:19.063Z,96144.23
2019-01-20T07:52:45.165Z,96144.14
2019-01-20T07:55:11.258Z,96151.53
2019-01-20T07:57:37.481Z,96157.29
2019-01-20T08:00:09.858Z,96157.59
2019-01-20T08:02:35.958Z,96154.00
2019-01-20T08:05:02.628Z,96148.02
2019-01-20T08:07:28.434Z,96152.16
2019-01-20T08:09:54.288Z,96151.34
2019-01-20T08:12:23.670Z,96159.86
2019-01-20T08:14:47.984Z,96158.31
2019-01-20T08:17:13.798Z,96167.97
2019-01-20T08:19:39.653Z,96171.99
2019-01-20T08:22:05.553Z,96182.59
2019-01-20T08:24:31.408Z,96166.09
2019-01-20T08:26:57.490Z,96177.34
2019-01-20T08:29:23.324Z,96180.48
2019-01-20T08:31:49.136Z,96183.50
2019-01-20T08:34:14.978Z,96184.59
2019-01-20T08:36:41.149Z,96187.06
2019-01-20T08:39:07.266Z,96190.87
2019-01-20T08:41:33.072Z,96191.84
2019-01-20T08:43:59.194Z,96192.73
2019-01-20T08:46:47.982Z,96194.96
2019-01-20T08:49:13.816Z,96194.70
2019-01-20T08:51:39.754Z,96188.25
2019-01-20T08:54:05.568Z,96190.62
2019-01-20T08:56:31.467Z,96194.98
2019-01-20T08:58:57.562Z,96197.97
2019-01-20T09:01:23.509Z,96193.73
2019-01-20T09:03:49.319Z,96205.52
2019-01-20T09:06:15.443Z,96203.67
2019-01-20T09:08:41.350Z,96202.94
2019-01-20T09:11:07.548Z,96205.22
2019-01-20T09:13:39.558Z,96199.65
2019-01-20T09:16:01.654Z,96188.06
2019-01-20T09:18:28.858Z,96202.98
2019-01-20T09:20:54.743Z,96209.65
2019-01-20T09:23:20.879Z,96217.69
2019-01-20T09:25:47.005Z,96227.77
2019-01-20T09:28:12.978Z,96221.83
2019-01-20T09:30:38.826Z,96219.42
2019-01-20T09:33:04.906Z,96218.00
2019-01-20T09:35:31.002Z,96224.97
2019-01-20T09:37:57.121Z,96229.67
2019-01-20T09:40:22.932Z,96226.47
2019-01-20T09:42:48.793Z,96228.78
2019-01-20T09:45:24.756Z,96229.42
2019-01-20T09:47:50.889Z,96221.39
2019-01-20T09:50:17.518Z,96223.14
2019-01-20T09:52:43.394Z,96223.14
2019-01-20T09:55:10.586Z,96237.31
2019-01-20T09:57:36.427Z,96242.17
2019-01-20T10:00:08.987Z,96246.40
2019-01-20T10:02:34.984Z,96244.66
2019-01-20T10:05:00.808Z,96246.62
2019-01-20T10:07:26.763Z,96246.98
2019-01-20T10:09:52.625Z,96246.88
2019-01-20T10:12:18.709Z,96250.75
2019-01-20T10:14:44.562Z,96246.98
2019-01-20T10:17:10.360Z,96254.53
2019-01-20T10:19:36.209Z,96252.08
2019-01-20T10:22:02.003Z,96252.34
2019-01-20T10:24:27.861Z,96261.69
2019-01-20T10:26:53.699Z,96254.98
2019-01-20T10:29:19.541Z,96255.92
2019-01-20T10:31:48.692Z,96255.04
2019-01-20T10:34:14.531Z,96273.06
2019-01-20T10:36:43.381Z,96262.70
2019-01-20T10:39:10.891Z,96257.13
2019-01-20T10:41:37.030Z,96252.80
2019-01-20T10:44:02.837Z,96255.61
2019-01-20T10:46:31.871Z,96253.27
2019-01-20T10:48:57.668Z,96254.91
2019-01-20T10:51:23.504Z,96255.20
2019-01-20T10:53:53.152Z,96251.09
2019-01-20T10:56:17.975Z,96260.59
2019-01-20T10:58:43.828Z,96259.05
2019-01-20T11:01:09.650Z,96246.98
2019-01-20T11:03:38.614Z,96258.64
2019-01-20T11:06:04.565Z,96262.38
2019-01-20T11:08:33.620Z,96259.90
2019-01-20T11:10:59.718Z,96256.95
2019-01-20T11:13:29.004Z,96256.05
2019-01-20T11:15:55.140Z,96259.52
2019-01-20T11:18:24.016Z,96253.14
2019-01-20T11:20:49.839Z,96257.34
2019-01-20T11:23:20.428Z,96261.22
2019-01-20T11:25:46.245Z,96279.52
2019-01-20T11:28:12.070Z,96255.66
2019-01-20T11:30:38.173Z,96256.44
2019-01-20T11:33:04.137Z,96263.20
2019-01-20T11:35:30.285Z,96260.88
2019-01-20T11:37:56.223Z,96259.79
2019-01-20T11:40:25.150Z,96259.12
2019-01-20T11:42:51.009Z,96259.12
2019-01-20T11:45:22.739Z,96259.70
2019-01-20T11:47:48.793Z,96281.20
2019-01-20T11:50:15.049Z,96260.09
2019-01-20T11:52:40.850Z,96260.67
2019-01-20T11:55:13.273Z,96260.86
2019-01-20T11:57:39.613Z,96264.91
2019-01-20T12:00:09.523Z,96260.31
2019-01-20T12:02:35.631Z,96257.80
2019-01-20T12:05:01.482Z,96250.41
2019-01-20T12:07:27.619Z,96252.11
2019-01-20T12:09:53.751Z,96243.30
2019-01-20T12:12:19.584Z,96243.57
2019-01-20T12:14:45.774Z,96249.13
2019-01-20T12:17:11.622Z,96251.42
2019-01-20T12:19:37.454Z,96250.06
2019-01-20T12:22:03.276Z,96246.18
2019-01-20T12:24:29.147Z,96240.64
2019-01-20T12:26:59.576Z,96243.60
2019-01-20T12:29:25.700Z,96257.75
2019-01-20T12:31:54.898Z,96245.86
2019-01-20T12:34:20.722Z,96258.03
2019-01-20T12:36:49.517Z,96254.27
2019-01-20T12:39:15.333Z,96257.56
2019-01-20T12:41:41.182Z,96254.11
2019-01-20T12:44:06.983Z,96253.67
2019-01-20T12:46:32.851Z,96258.03
2019-01-20T12:48:59.065Z,96257.87
2019-01-20T12:51:28.616Z,96274.93
2019-01-20T12:53:55.445Z,96256.35
2019-01-20T12:56:21.505Z,96256.52
2019-01-20T12:58:48.933Z,96253.86
2019-01-20T13:01:14.744Z,96259.91
2019-01-20T13:03:43.367Z,96258.86
2019-01-20T13:06:09.294Z,96257.69
2019-01-20T13:08:39.646Z,96253.40
2019-01-20T13:11:05.745Z,96251.52
2019-01-20T13:13:34.462Z,96254.77
2019-01-20T13:16:00.615Z,96252.98
2019-01-20T13:18:26.720Z,96251.31
2019-01-20T13:20:52.550Z,96258.89
2019-01-20T13:23:19.554Z,96255.20
2019-01-20T13:25:45.413Z,96250.75
2019-01-20T13:28:11.219Z,96250.95
2019-01-20T13:30:39.829Z,96255.01
2019-01-20T13:33:05.638Z,96275.19
2019-01-20T13:35:34.237Z,96254.05
2019-01-20T13:38:05.659Z,96253.70
2019-01-20T13:40:38.031Z,96257.55
2019-01-20T13:43:03.962Z,96257.75
2019-01-20T13:45:29.885Z,96263.66
2019-01-20T13:47:56.043Z,96261.41
2019-01-20T13:50:21.962Z,96264.20
2019-01-20T13:52:47.935Z,96270.19
2019-01-20T13:55:15.126Z,96271.12
2019-01-20T13:57:40.983Z,96267.32
2019-01-20T14:00:21.173Z,96264.02
2019-01-20T14:02:47.209Z,96267.48
2019-01-20T14:05:13.386Z,96267.40
2019-01-20T14:07:39.198Z,96263.55
2019-01-20T14:10:19.269Z,96264.44
2019-01-20T14:12:45.231Z,96267.28
2019-01-20T14:15:13.441Z,96269.41
2019-01-20T14:17:39.282Z,96268.79
2019-01-20T14:20:32.900Z,96273.37
2019-01-20T14:22:58.708Z,96271.91
2019-01-20T14:25:28.870Z,96273.84
2019-01-20T14:27:54.984Z,96279.28
2019-01-20T14:30:23.109Z,96279.09
2019-01-20T14:32:49.282Z,96278.78
2019-01-20T14:35:15.378Z,96273.97
2019-01-20T14:37:41.309Z,96283.83
2019-01-20T14:40:17.625Z,96286.12
2019-01-20T14:42:43.591Z,96296.49
2019-01-20T14:45:12.613Z,96296.88
2019-01-20T14:47:38.747Z,96302.52
2019-01-20T14:50:09.317Z,96297.47
2019-01-20T14:52:38.301Z,96300.84
2019-01-20T14:55:11.220Z,96312.84
2019-01-20T14:57:37.319Z,96308.61
2019-01-20T15:00:15.605Z,96305.41
2019-01-20T15:02:41.430Z,96314.42
2019-01-20T15:05:07.482Z,96308.62
2019-01-20T15:07:33.294Z,96307.98
2019-01-20T15:09:59.129Z,96265.38
2019-01-20T15:12:24.933Z,96309.38
2019-01-20T15:14:50.796Z,96310.16
2019-01-20T15:17:16.599Z,96316.67
2019-01-20T15:19:43.959Z,96322.77
2019-01-20T15:22:10.463Z,96319.06
2019-01-20T15:24:40.105Z,96322.13
2019-01-20T15:27:05.924Z,96326.00
2019-01-20T15:29:31.774Z,96330.34
2019-01-20T15:31:57.591Z,96326.11
2019-01-20T15:34:23.657Z,96331.41
2019-01-20T15:36:52.299Z,96330.23
2019-01-20T15:39:18.157Z,96333.84
2019-01-20T15:41:44.953Z,96336.02
2019-01-20T15:44:11.101Z,96342.88
2019-01-20T15:46:39.619Z,96342.88
2019-01-20T15:49:25.607Z,96349.75
2019-01-20T15:51:51.765Z,96349.75
2019-01-20T15:54:17.917Z,96351.48
2019-01-20T15:56:43.998Z,96354.77
2019-01-20T15:59:09.856Z,96361.27
2019-01-20T16:01:35.991Z,96363.47
2019-01-20T16:04:01.818Z,96363.73
2019-01-20T16:06:27.748Z,96368.14
2019-01-20T16:08:53.558Z,96373.45
2019-01-20T16:11:19.651Z,96380.87
2019-01-20T16:13:45.519Z,96372.89
2019-01-20T16:16:11.421Z,96367.20
2019-01-20T16:18:37.271Z,96362.24
2019-01-20T16:21:03.314Z,96383.84
2019-01-20T16:23:29.456Z,96380.00
2019-01-20T16:25:55.331Z,96388.98
2019-01-20T16:28:21.470Z,96388.05
2019-01-20T16:30:47.381Z,96393.13
2019-01-20T16:33:14.215Z,96394.41
2019-01-20T16:35:40.369Z,96414.89
2019-01-20T16:38:11.098Z,96399.44
2019-01-20T16:40:37.158Z,96422.56
2019-01-20T16:43:03.317Z,96411.91
2019-01-20T16:45:34.101Z,96412.48
2019-01-20T16:48:00.403Z,96409.92
2019-01-20T16:50:26.353Z,96413.67
2019-01-20T16:52:54.739Z,96414.41
2019-01-20T16:55:20.464Z,96419.52
2019-01-20T16:57:46.502Z,96419.03
2019-01-20T17:00:21.179Z,96415.19
2019-01-20T17:02:47.192Z,96417.41
2019-01-20T17:05:13.215Z,96428.93
2019-01-20T17:07:39.473Z,96417.11
2019-01-20T17:10:14.118Z,96423.81
2019-01-20T17:12:40.244Z,96425.55
2019-01-20T17:15:09.801Z,96427.00
2019-01-20T17:17:35.664Z,96427.00
2019-01-20T17:20:01.678Z,96424.51
2019-01-20T17:22:49.987Z,96429.77
2019-01-20T17:25:16.530Z,96428.52
2019-01-20T17:27:42.667Z,96436.84
2019-01-20T17:30:21.102Z,96436.78
2019-01-20T17:32:47.262Z,96438.00
2019-01-20T17:35:13.422Z,96434.40
2019-01-20T17:37:39.369Z,96437.41
2019-01-20T17:40:30.719Z,96441.16
2019-01-20T17:42:56.704Z,96443.72
2019-01-20T17:45:28.218Z,96449.15
2019-01-20T17:47:57.398Z,96451.25
2019-01-20T17:50:29.667Z,96469.94
2019-01-20T17:52:55.483Z,96453.81
2019-01-20T17:55:21.529Z,96455.09
2019-01-20T17:57:47.384Z,96453.45
2019-01-20T18:00:32.168Z,96450.77
2019-01-20T18:02:58.413Z,96455.74
2019-01-20T18:05:24.675Z,96461.26
2019-01-20T18:07:50.770Z,96468.05
2019-01-20T18:10:16.589Z,96464.73
2019-01-20T18:12:42.711Z,96465.13
2019-01-20T18:15:11.865Z,96471.64
2019-01-20T18:17:37.963Z,96471.64
2019-01-20T18:20:07.701Z,96478.92
2019-01-20T18:25:41.178Z,96486.84
2019-01-20T18:28:07.106Z,96481.48
2019-01-20T18:30:32.954Z,96489.95
2019-01-20T18:32:58.762Z,96484.97
2019-01-20T18:35:25.912Z,96488.92
2019-01-20T18:37:52.162Z,96490.15
2019-01-20T18:40:19.428Z,96491.83
2019-01-20T18:42:45.252Z,96495.95
2019-01-20T18:45:13.400Z,96496.34
2019-01-20T18:47:39.224Z,96501.02
2019-01-20T18:50:11.350Z,96495.20
2019-01-20T18:52:37.197Z,96500.27
2019-01-20T18:55:06.587Z,96499.39
2019-01-20T18:57:32.405Z,96498.91
2019-01-20T18:59:58.212Z,96503.14
2019-01-20T19:02:24.052Z,96497.37
2019-01-20T19:04:49.907Z,96503.82
2019-01-20T19:07:15.849Z,96504.53
2019-01-20T19:09:41.686Z,96506.55
2019-01-20T19:12:07.903Z,96507.46
2019-01-20T19:14:33.717Z,96512.58
2019-01-20T19:16:59.559Z,96507.80
2019-01-20T19:19:25.387Z,96515.28
2019-01-20T19:21:51.208Z,96511.92
2019-01-20T19:24:17.170Z,96517.30
2019-01-20T19:26:43.023Z,96520.14
2019-01-20T19:29:08.817Z,96515.00
2019-01-20T19:31:34.664Z,96519.23
2019-01-20T19:34:00.487Z,96523.47
2019-01-20T19:36:26.337Z,96530.33
2019-01-20T19:38:52.201Z,96528.73
2019-01-20T19:41:18.021Z,96532.14
2019-01-20T19:43:43.871Z,96528.02
2019-01-20T19:46:15.986Z,96522.07
2019-01-20T19:48:37.466Z,96517.44
2019-01-20T19:51:03.328Z,96517.44
2019-01-20T19:53:29.184Z,96531.38
2019-01-20T19:55:55.051Z,96529.61
2019-01-20T19:58:20.877Z,96531.77
2019-01-20T20:00:46.717Z,96533.94
2019-01-20T20:03:12.651Z,96532.66
2019-01-20T20:05:38.488Z,96537.98
2019-01-20T20:08:04.436Z,96532.36
2019-01-20T20:10:30.264Z,96537.86
2019-01-20T20:12:56.216Z,96548.89
2019-01-20T20:15:23.618Z,96541.70
2019-01-20T20:17:49.587Z,96549.48
2019-01-20T20:20:16.757Z,96547.00
2019-01-20T20:22:42.625Z,96555.02
2019-01-20T20:25:11.056Z,96556.41
2019-01-20T20:27:36.895Z,96556.94
2019-01-20T20:30:11.971Z,96557.05
2019-01-20T20:32:37.779Z,96558.86
2019-01-20T20:35:06.775Z,96558.86
2019-01-20T20:37:32.646Z,96568.88
2019-01-20T20:39:58.491Z,96570.95
2019-01-20T20:42:24.317Z,96577.83
2019-01-20T20:44:50.455Z,96572.40
2019-01-20T20:47:16.277Z,96573.63
2019-01-20T20:49:42.115Z,96576.64
2019-01-20T20:52:08.204Z,96576.58
2019-01-20T20:54:35.830Z,96572.92
2019-01-20T20:57:01.804Z,96575.22
2019-01-20T20:59:27.910Z,96575.22
2019-01-20T21:01:53.738Z,96589.80
2019-01-20T21:04:19.575Z,96589.80
2019-01-20T21:06:45.396Z,96592.77
2019-01-20T21:09:11.318Z,96578.91
2019-01-20T21:11:37.295Z,96592.44
2019-01-20T21:14:03.517Z,96597.55
2019-01-20T21:16:29.674Z,96594.53
2019-01-20T21:18:55.500Z,96594.53
2019-01-20T21:21:21.648Z,96600.42
2019-01-20T21:23:47.503Z,96603.84
2019-01-20T21:26:14.762Z,96597.20
2019-01-20T21:28:40.714Z,96607.92
2019-01-20T21:31:06.837Z,96609.95
2019-01-20T21:33:32.682Z,96612.16
2019-01-20T21:35:58.488Z,96566.38
2019-01-20T21:38:24.335Z,96614.00
2019-01-20T21:40:50.185Z,96614.16
2019-01-20T21:43:16.003Z,96611.16
2019-01-20T21:45:41.836Z,96603.98
2019-01-20T21:48:07.680Z,96615.82
2019-01-20T21:50:33.502Z,96612.88
2019-01-20T21:52:59.343Z,96619.66
2019-01-20T21:55:25.197Z,96616.70
2019-01-20T21:57:51.277Z,96620.51
2019-01-20T22:00:23.280Z,96623.89
2019-01-20T22:02:49.115Z,96648.97
2019-01-20T22:05:15.369Z,96631.13
2019-01-20T22:07:41.179Z,96640.49
2019-01-20T22:10:18.446Z,96645.02
2019-01-20T22:12:44.658Z,96661.92
2019-01-20T22:15:11.499Z,96636.56
2019-01-20T22:17:37.588Z,96636.56
2019-01-20T22:20:07.284Z,96639.69
2019-01-20T22:22:34.400Z,96641.87
2019-01-20T22:25:00.522Z,96642.67
2019-01-20T22:27:26.399Z,96640.49
2019-01-20T22:29:52.182Z,96645.61
2019-01-20T22:32:18.054Z,96640.09
2019-01-20T22:34:44.194Z,96644.90
2019-01-20T22:37:10.043Z,96647.87
2019-01-20T22:39:35.901Z,96646.96
2019-01-20T22:42:01.736Z,96653.20
2019-01-20T22:44:27.590Z,96651.48
2019-01-20T22:47:00.040Z,96651.62
2019-01-20T22:49:21.530Z,96638.86
2019-01-20T22:51:50.406Z,96638.86
2019-01-20T22:54:16.507Z,96669.05
2019-01-20T22:56:45.724Z,96655.03
2019-01-20T22:59:11.544Z,96674.84
2019-01-20T23:01:37.482Z,96659.95
2019-01-20T23:04:03.447Z,96658.79
2019-01-20T23:06:29.647Z,96658.62
2019-01-20T23:08:55.429Z,96658.77
2019-01-20T23:11:21.542Z,96663.43
2019-01-20T23:13:50.709Z,96661.44
2019-01-20T23:16:16.849Z,96665.60
2019-01-20T23:18:44.251Z,96666.08
2019-01-20T23:21:10.094Z,96663.63
2019-01-20T23:23:40.721Z,96670.42
2019-01-20T23:26:06.597Z,96664.21
2019-01-20T23:28:34.149Z,96662.42
2019-01-20T23:31:00.072Z,96671.37
2019-01-20T23:33:28.655Z,96670.58
2019-01-20T23:35:54.534Z,96677.06
2019-01-20T23:38:23.082Z,96668.69
2019-01-20T23:40:49.229Z,96666.88
2019-01-20T23:43:15.073Z,96676.08
2019-01-20T23:45:41.165Z,96670.16
2019-01-20T23:48:07.288Z,96671.35
2019-01-20T23:50:36.274Z,96672.97
2019-01-20T23:53:02.089Z,96684.94
2019-01-20T23:55:30.699Z,96667.95
2019-01-20T23:57:56.547Z,96669.87
